Time;durP1;ratioP1;P1;durP2;ratioP2;P2;SDS_P1;SDS_P2;PMS_P1;PMS_P2;Temp;Humidity;BMP_temperature;BMP_pressure;BME280_temperature;BME280_humidity;BME280_pressure;Samples;Min_cycle;Max_cycle;Signal;HPM_P1;HPM_P2
2023/05/17 00:03:29;;;;;;;17.90;14.40;;;;;;;12.49;81.33;99688.75;218991;1255;140267;-65
2023/05/17 00:08:35;;;;;;;21.60;15.20;;;;;;;12.43;81.22;99684.76;218863;1256;141153;-66
2023/05/17 00:13:41;;;;;;;18.80;14.80;;;;;;;12.34;81.48;99693.50;217976;1257;141394;-66
2023/05/17 00:18:46;;;;;;;17.00;15.20;;;;;;;12.27;81.54;99687.84;218389;1256;140794;-65
2023/05/17 00:23:51;;;;;;;19.90;15.80;;;;;;;12.21;81.72;99690.73;219129;1254;139947;-65
2023/05/17 00:28:56;;;;;;;14.60;12.60;;;;;;;12.18;81.73;99694.86;218835;1257;140333;-65
2023/05/17 00:34:01;;;;;;;18.40;13.40;;;;;;;12.12;81.76;99692.36;218142;1254;139971;-64
2023/05/17 00:39:07;;;;;;;14.40;12.30;;;;;;;12.06;82.09;99690.23;217937;1254;140679;-65
2023/05/17 00:44:11;;;;;;;14.10;11.50;;;;;;;11.98;82.25;99694.54;219499;1254;140555;-65
2023/05/17 00:49:16;;;;;;;14.40;11.70;;;;;;;11.92;82.29;99693.35;219986;1254;140476;-65
2023/05/17 00:54:21;;;;;;;15.00;10.50;;;;;;;11.88;82.37;99696.39;220615;1254;140172;-66
2023/05/17 00:59:27;;;;;;;15.90;13.00;;;;;;;11.85;82.57;99695.81;220691;1254;140464;-66
2023/05/17 01:04:31;;;;;;;15.90;12.50;;;;;;;11.83;82.51;99697.00;219330;1254;141684;-66
2023/05/17 01:09:37;;;;;;;13.60;10.40;;;;;;;11.81;82.74;99695.96;220268;1254;140115;-65
2023/05/17 01:14:59;;;;;;;14.00;12.00;;;;;;;11.81;82.50;99698.36;219200;1254;140760;-64
2023/05/17 01:20:11;;;;;;;12.90;9.90;;;;;;;11.78;82.91;99698.37;217918;1254;141075;-64
2023/05/17 01:25:29;;;;;;;14.80;11.50;;;;;;;11.74;82.91;99702.49;219303;1254;141051;-65
2023/05/17 01:30:36;;;;;;;13.80;11.60;;;;;;;11.69;82.97;99697.06;218931;1254;140246;-65
2023/05/17 01:35:41;;;;;;;13.60;10.10;;;;;;;11.63;82.98;99705.67;219390;1254;140057;-64
2023/05/17 01:41:10;;;;;;;13.80;10.30;;;;;;;11.57;83.17;99712.16;218077;1254;140120;-64
2023/05/17 01:46:31;;;;;;;12.20;10.90;;;;;;;11.54;83.31;99716.42;218666;1254;140552;-65
2023/05/17 01:51:45;;;;;;;13.10;11.70;;;;;;;11.49;83.51;99723.23;218112;1254;140001;-65
2023/05/17 01:56:57;;;;;;;11.20;9.50;;;;;;;11.45;83.49;99727.64;218173;1254;140403;-65
2023/05/17 02:02:06;;;;;;;15.10;10.20;;;;;;;11.40;83.56;99728.23;218241;1254;139988;-64
2023/05/17 02:07:11;;;;;;;12.70;9.90;;;;;;;11.36;83.88;99736.86;219130;1254;140293;-64
2023/05/17 02:12:16;;;;;;;13.30;9.70;;;;;;;11.35;84.06;99746.04;218643;1256;140140;-64
2023/05/17 02:17:21;;;;;;;10.80;9.10;;;;;;;11.35;84.06;99749.82;219067;1255;140507;-64
2023/05/17 02:22:25;;;;;;;9.40;8.50;;;;;;;11.34;84.15;99746.27;218186;1254;140000;-66
2023/05/17 02:27:30;;;;;;;10.90;9.70;;;;;;;11.30;83.88;99750.90;219409;1254;140527;-65
2023/05/17 02:32:35;;;;;;;12.10;8.50;;;;;;;11.25;83.84;99756.05;219073;1256;140616;-65
2023/05/17 02:37:41;;;;;;;7.80;7.10;;;;;;;11.25;84.06;99753.11;219228;1254;140281;-65
2023/05/17 02:42:46;;;;;;;11.20;9.70;;;;;;;11.21;84.05;99751.91;217989;1254;140112;-65
2023/05/17 02:47:51;;;;;;;9.20;7.90;;;;;;;11.17;84.18;99750.72;219245;1254;140838;-66
2023/05/17 02:52:56;;;;;;;9.30;7.30;;;;;;;11.12;84.04;99744.95;219860;1254;140456;-66
2023/05/17 02:58:00;;;;;;;11.10;7.10;;;;;;;11.09;84.02;99747.40;219288;1257;140291;-68
2023/05/17 03:03:04;;;;;;;13.90;7.90;;;;;;;11.07;83.93;99755.64;220474;1254;140252;-66
2023/05/17 03:08:08;;;;;;;9.10;7.00;;;;;;;11.06;83.96;99768.63;220509;1256;140154;-66
2023/05/17 03:13:11;;;;;;;11.80;6.70;;;;;;;11.04;83.79;99766.78;220671;1255;139703;-66
2023/05/17 03:18:15;;;;;;;10.50;8.20;;;;;;;11.02;83.63;99765.95;218048;1258;141006;-66
2023/05/17 03:23:18;;;;;;;8.30;7.40;;;;;;;11.00;83.79;99773.33;218384;1254;650218;-65
2023/05/17 03:28:22;;;;;;;8.80;7.40;;;;;;;10.97;83.65;99777.45;219857;1254;140696;-65
2023/05/17 03:33:26;;;;;;;11.00;7.20;;;;;;;10.92;83.69;99782.34;220032;1254;140107;-66
2023/05/17 03:38:31;;;;;;;15.00;8.30;;;;;;;10.89;83.81;99789.86;217927;1257;139743;-65
2023/05/17 03:43:36;;;;;;;9.70;6.90;;;;;;;10.89;83.77;99794.43;218205;1254;139694;-66
2023/05/17 03:48:41;;;;;;;9.00;6.90;;;;;;;10.85;83.80;99797.98;219124;1258;140019;-66
2023/05/17 03:53:46;;;;;;;6.60;5.40;;;;;;;10.84;83.96;99795.77;218651;1257;140522;-66
2023/05/17 03:58:51;;;;;;;10.10;6.50;;;;;;;10.80;83.68;99796.65;218815;1254;140648;-66
2023/05/17 04:03:56;;;;;;;12.70;6.90;;;;;;;10.78;84.09;99797.79;218295;1257;140049;-67
2023/05/17 04:09:00;;;;;;;9.60;6.30;;;;;;;10.74;83.75;99797.25;218231;1256;140231;-69
2023/05/17 04:14:04;;;;;;;10.60;5.30;;;;;;;10.69;83.94;99802.77;217922;1255;139806;-66
2023/05/17 04:19:08;;;;;;;9.90;5.40;;;;;;;10.67;83.81;99814.18;218609;1257;140058;-68
2023/05/17 04:24:13;;;;;;;5.10;4.60;;;;;;;10.62;83.61;99815.41;218460;1256;140918;-67
2023/05/17 04:29:17;;;;;;;7.50;5.40;;;;;;;10.61;83.52;99827.21;218969;1257;139889;-68
2023/05/17 04:34:22;;;;;;;7.10;5.10;;;;;;;10.62;83.61;99835.83;218426;1255;139650;-66
2023/05/17 04:39:27;;;;;;;4.50;4.10;;;;;;;10.62;83.38;99848.14;218366;1259;140115;-65
2023/05/17 04:44:34;;;;;;;8.00;4.50;;;;;;;10.59;83.23;99850.69;218945;1257;140710;-65
2023/05/17 04:49:40;;;;;;;5.40;4.40;;;;;;;10.57;83.14;99845.96;218913;1259;140972;-65
2023/05/17 04:54:46;;;;;;;6.40;4.00;;;;;;;10.59;83.10;99838.02;219085;1256;139845;-66
2023/05/17 04:59:51;;;;;;;6.20;4.60;;;;;;;10.64;83.29;99842.70;220547;1256;140511;-66
2023/05/17 05:04:56;;;;;;;5.50;4.80;;;;;;;10.70;83.28;99828.39;220520;1256;140224;-67
2023/05/17 05:10:01;;;;;;;10.30;4.30;;;;;;;10.78;83.17;99822.57;219762;1256;141522;-67
2023/05/17 05:15:06;;;;;;;6.00;4.50;;;;;;;10.84;83.19;99815.29;220620;1256;140384;-68
2023/05/17 05:20:11;;;;;;;9.60;6.00;;;;;;;10.92;83.26;99825.02;218212;1255;140841;-67
2023/05/17 05:25:17;;;;;;;10.10;5.70;;;;;;;10.98;83.06;99836.35;219677;1257;141000;-67
2023/05/17 05:30:23;;;;;;;11.80;6.20;;;;;;;10.99;83.14;99843.27;219705;1255;140268;-67
2023/05/17 05:35:28;;;;;;;7.10;5.80;;;;;;;11.00;83.17;99852.72;219534;1256;140152;-67
2023/05/17 05:40:35;;;;;;;15.50;7.40;;;;;;;11.01;83.23;99850.33;218287;1256;141055;-66
2023/05/17 05:45:44;;;;;;;11.30;7.40;;;;;;;10.99;83.08;99842.50;218582;1257;139707;-65
2023/05/17 05:50:50;;;;;;;7.80;6.10;;;;;;;10.98;83.41;99856.80;218292;1257;140028;-69
2023/05/17 05:55:56;;;;;;;9.00;6.00;;;;;;;11.01;83.36;99867.39;218166;1256;139599;-68
2023/05/17 06:01:00;;;;;;;9.20;5.80;;;;;;;11.00;83.53;99866.21;218050;1256;141923;-69
2023/05/17 06:06:15;;;;;;;6.50;5.50;;;;;;;11.00;83.49;99884.12;217901;1257;139460;-69
2023/05/17 06:11:20;;;;;;;15.60;6.80;;;;;;;10.99;83.55;99898.20;218407;1255;139722;-70
2023/05/17 06:16:24;;;;;;;7.00;6.20;;;;;;;10.97;83.53;99906.59;218777;1254;140151;-72
2023/05/17 06:21:30;;;;;;;5.80;4.90;;;;;;;10.97;83.73;99912.29;219047;1257;140644;-72
2023/05/17 06:26:33;;;;;;;10.60;8.00;;;;;;;10.97;83.69;99920.24;218200;1254;139908;-71
2023/05/17 06:31:37;;;;;;;7.30;6.00;;;;;;;11.01;83.80;99921.43;219646;1254;140028;-71
2023/05/17 06:36:41;;;;;;;7.60;6.90;;;;;;;11.07;83.56;99905.02;217985;1259;139671;-71
2023/05/17 06:41:51;;;;;;;12.40;6.70;;;;;;;11.12;83.45;99908.66;218720;1254;139746;-71
2023/05/17 06:46:55;;;;;;;6.20;5.60;;;;;;;11.19;83.42;99906.14;220348;1257;142498;-67
2023/05/17 06:52:02;;;;;;;7.80;7.00;;;;;;;11.32;83.50;99905.79;219284;1255;140761;-70
2023/05/17 06:57:06;;;;;;;10.80;7.50;;;;;;;11.50;83.22;99914.86;220228;1256;140749;-69
2023/05/17 07:02:12;;;;;;;8.70;6.80;;;;;;;11.63;83.05;99925.04;219917;1257;140061;-71
2023/05/17 07:07:16;;;;;;;7.40;6.40;;;;;;;11.77;82.75;99934.76;220496;1256;140347;-68
2023/05/17 07:12:20;;;;;;;14.30;6.70;;;;;;;11.88;82.63;99943.30;219944;1256;140700;-68
2023/05/17 07:17:24;;;;;;;7.80;7.10;;;;;;;11.94;82.38;99955.41;218683;1256;140097;-69
2023/05/17 07:22:29;;;;;;;9.00;6.30;;;;;;;11.95;82.36;99964.20;219293;1259;139700;-67
2023/05/17 07:27:35;;;;;;;8.50;6.60;;;;;;;11.94;81.79;99964.41;218479;1256;139778;-67
2023/05/17 07:32:39;;;;;;;11.70;5.80;;;;;;;11.93;81.77;99953.80;219250;1256;139638;-67
2023/05/17 07:37:44;;;;;;;10.50;4.50;;;;;;;11.92;81.63;99955.98;218681;1257;140155;-66
2023/05/17 07:42:52;;;;;;;10.50;5.10;;;;;;;11.96;81.36;99958.88;219211;1257;140590;-68
2023/05/17 07:47:56;;;;;;;11.90;6.00;;;;;;;11.92;80.89;99974.11;217857;1257;140869;-69
2023/05/17 07:53:01;;;;;;;5.00;4.30;;;;;;;11.90;80.67;99977.48;219202;1256;140437;-68
2023/05/17 07:58:08;;;;;;;8.30;5.50;;;;;;;11.87;80.57;99984.91;218444;1255;140061;-70
2023/05/17 08:03:14;;;;;;;10.30;3.60;;;;;;;11.83;80.09;99993.09;218064;1259;139886;-67
2023/05/17 08:08:21;;;;;;;6.30;3.90;;;;;;;11.86;80.05;99989.46;217902;1257;139972;-69
2023/05/17 08:13:26;;;;;;;6.90;3.40;;;;;;;11.94;79.87;99985.19;218920;1257;141060;-70
2023/05/17 08:18:31;;;;;;;6.70;2.90;;;;;;;12.13;79.65;99982.88;218076;1257;140298;-69
2023/05/17 08:23:35;;;;;;;6.40;3.80;;;;;;;12.34;78.81;99991.19;219035;1259;140374;-72
2023/05/17 08:28:40;;;;;;;2.80;1.90;;;;;;;12.57;77.80;99993.61;218502;1256;141312;-68
2023/05/17 08:33:47;;;;;;;3.40;2.20;;;;;;;12.88;77.42;99992.16;217818;1259;140080;-69
2023/05/17 08:38:52;;;;;;;2.40;2.30;;;;;;;13.23;76.84;99984.20;219123;1257;139810;-68
2023/05/17 08:43:57;;;;;;;2.90;2.60;;;;;;;13.58;76.04;99989.57;219200;1257;139889;-68
2023/05/17 08:49:03;;;;;;;5.20;2.70;;;;;;;13.84;75.03;99999.48;219471;1256;140832;-67
2023/05/17 08:54:09;;;;;;;8.00;3.00;;;;;;;14.07;73.73;100010.41;218949;1259;141770;-67
2023/05/17 08:59:14;;;;;;;2.40;2.30;;;;;;;14.40;73.15;99999.20;219929;1257;140826;-66
2023/05/17 09:04:19;;;;;;;3.00;2.40;;;;;;;14.98;72.87;99999.73;220260;1257;140217;-67
2023/05/17 09:09:25;;;;;;;9.20;3.30;;;;;;;15.51;72.28;99996.42;219568;1257;141251;-66
2023/05/17 09:14:36;;;;;;;5.30;3.00;;;;;;;16.03;71.00;99999.69;218194;1259;141396;-68
2023/05/17 09:19:48;;;;;;;2.80;2.00;;;;;;;16.26;70.64;100006.85;218981;1255;139590;-68
2023/05/17 09:24:58;;;;;;;6.90;3.40;;;;;;;16.39;69.10;100002.37;219875;1256;140852;-68
2023/05/17 09:30:09;;;;;;;5.70;2.70;;;;;;;16.47;68.11;99999.65;218733;1256;139744;-68
2023/05/17 09:35:14;;;;;;;6.30;2.70;;;;;;;16.41;67.02;100003.51;218960;1255;140910;-68
2023/05/17 09:40:24;;;;;;;12.80;4.10;;;;;;;16.33;66.26;100003.64;218901;1255;139960;-68
2023/05/17 09:45:31;;;;;;;4.60;2.70;;;;;;;16.34;66.11;100013.98;217886;1257;141111;-67
2023/05/17 09:50:42;;;;;;;4.40;2.70;;;;;;;16.41;65.16;100017.17;217806;1257;140596;-67
2023/05/17 09:55:47;;;;;;;8.30;3.10;;;;;;;16.24;64.57;100021.59;218418;1257;139532;-70
2023/05/17 10:00:56;;;;;;;6.80;3.00;;;;;;;16.03;64.07;100023.24;218314;1257;140048;-66
2023/05/17 10:06:04;;;;;;;6.50;2.30;;;;;;;15.78;63.56;100024.98;218137;1256;139267;-68
2023/05/17 10:11:10;;;;;;;3.70;2.60;;;;;;;15.59;63.66;100025.46;218504;1259;140557;-69
2023/05/17 10:16:15;;;;;;;6.30;1.90;;;;;;;15.50;62.82;100022.16;218397;1256;140635;-70
2023/05/17 10:21:21;;;;;;;3.30;2.00;;;;;;;15.43;62.22;100009.81;218231;1259;139384;-67
2023/05/17 10:26:27;;;;;;;7.20;2.80;;;;;;;15.57;62.45;100017.05;217873;1259;139237;-67
2023/05/17 10:31:33;;;;;;;4.40;2.90;;;;;;;15.73;62.55;100008.33;219198;1259;140050;-69
2023/05/17 10:36:40;;;;;;;4.40;2.20;;;;;;;15.78;62.18;100002.02;217919;1256;139982;-71
2023/05/17 10:41:46;;;;;;;5.20;3.40;;;;;;;15.79;62.00;99998.27;219062;1259;140027;-64
2023/05/17 10:46:54;;;;;;;11.70;3.90;;;;;;;15.88;62.14;99993.46;218413;1257;139113;-68
2023/05/17 10:52:12;;;;;;;11.80;3.40;;;;;;;15.91;61.91;99998.61;220461;1256;139925;-69
2023/05/17 10:57:36;;;;;;;8.60;3.00;;;;;;;16.01;61.97;99993.77;220652;1259;141694;-68
2023/05/17 11:02:44;;;;;;;4.80;2.80;;;;;;;16.17;61.28;100005.66;220560;1257;139744;-68
2023/05/17 11:07:48;;;;;;;6.90;2.40;;;;;;;16.07;60.49;100006.21;220625;1259;140238;-68
2023/05/17 11:12:54;;;;;;;6.10;3.80;;;;;;;16.02;60.81;100014.74;219797;1256;139728;-68
2023/05/17 11:18:00;;;;;;;10.20;4.30;;;;;;;16.02;60.85;100015.86;218835;1257;139454;-70
2023/05/17 11:23:14;;;;;;;8.50;4.10;;;;;;;15.94;60.70;100011.33;219006;1257;139242;-68
2023/05/17 11:28:21;;;;;;;6.20;3.70;;;;;;;15.77;60.65;100012.71;218399;1259;140074;-68
2023/05/17 11:33:38;;;;;;;4.50;3.70;;;;;;;15.72;60.98;100011.29;218490;1256;140035;-69
2023/05/17 11:38:47;;;;;;;6.50;3.60;;;;;;;15.78;61.11;100021.96;218983;1257;139665;-68
2023/05/17 11:44:00;;;;;;;;;;;;;;;15.75;61.08;100022.27;218942;1257;139007;-68
2023/05/17 11:49:07;;;;;;;7.90;5.20;;;;;;;15.64;61.26;100026.02;218956;1257;126197;-66
2023/05/17 11:54:14;;;;;;;9.10;4.30;;;;;;;15.58;61.09;100028.95;218108;1259;139937;-68
2023/05/17 11:59:22;;;;;;;5.80;4.10;;;;;;;15.54;61.41;100031.86;218113;1255;139379;-68
2023/05/17 12:04:26;;;;;;;6.40;3.50;;;;;;;15.58;61.78;100035.61;218462;1257;141469;-68
2023/05/17 12:09:30;;;;;;;4.90;3.50;;;;;;;15.60;61.85;100032.45;218154;1257;139533;-69
2023/05/17 12:14:37;;;;;;;4.90;3.30;;;;;;;15.60;61.44;100033.85;218919;1259;141198;-69
2023/05/17 12:19:43;;;;;;;4.70;3.40;;;;;;;15.68;61.50;100032.81;218186;1259;139824;-67
2023/05/17 12:24:49;;;;;;;10.60;4.00;;;;;;;15.88;61.35;100037.64;218581;1259;141354;-67
2023/05/17 12:29:55;;;;;;;5.10;3.60;;;;;;;16.02;61.35;100047.60;218747;1257;139906;-67
2023/05/17 12:34:59;;;;;;;6.20;3.30;;;;;;;16.12;61.07;100054.96;219737;1255;141025;-68
2023/05/17 12:40:05;;;;;;;8.30;3.90;;;;;;;16.19;60.27;100053.87;218676;1255;140895;-69
2023/05/17 12:45:11;;;;;;;12.50;4.50;;;;;;;16.21;59.97;100062.02;218792;1259;139394;-67
2023/05/17 12:50:24;;;;;;;;;;;;;;;16.16;59.71;100067.36;220495;1257;140662;-68
2023/05/17 12:55:36;;;;;;;14.90;4.50;;;;;;;16.00;59.25;100074.52;221017;1259;126858;-69
2023/05/17 13:00:54;;;;;;;8.40;4.00;;;;;;;15.88;59.22;100075.77;218554;1257;140344;-69
2023/05/17 13:06:02;;;;;;;7.70;4.00;;;;;;;15.85;59.37;100073.34;220712;1257;139732;-66
2023/05/17 13:11:11;;;;;;;8.80;4.80;;;;;;;15.86;59.19;100076.58;220146;1257;139184;-70
2023/05/17 13:16:16;;;;;;;7.70;5.40;;;;;;;15.74;58.84;100083.21;219740;1258;139751;-68
2023/05/17 13:21:21;;;;;;;11.80;4.80;;;;;;;15.57;59.00;100086.00;218471;1257;139278;-68
2023/05/17 13:26:26;;;;;;;17.40;5.60;;;;;;;15.41;59.14;100093.02;219079;1259;140183;-68
2023/05/17 13:31:30;;;;;;;10.80;5.80;;;;;;;15.23;59.27;100086.01;218299;1260;139344;-65
2023/05/17 13:36:34;;;;;;;9.20;5.10;;;;;;;15.07;59.22;100082.33;218171;1257;140475;-67
2023/05/17 13:41:39;;;;;;;9.40;4.80;;;;;;;14.94;59.37;100092.91;218533;1259;139832;-68
2023/05/17 13:46:44;;;;;;;10.10;5.40;;;;;;;14.90;59.31;100108.86;218398;1259;139841;-69
2023/05/17 13:51:48;;;;;;;9.60;5.30;;;;;;;14.79;59.24;100113.75;219960;1258;140522;-79
2023/05/17 13:56:54;;;;;;;11.80;6.90;;;;;;;14.69;59.30;100111.59;219487;1256;139581;-66
2023/05/17 14:02:00;;;;;;;10.10;6.40;;;;;;;14.59;59.61;100115.15;217965;1260;139923;-72
2023/05/17 14:07:06;;;;;;;8.90;5.50;;;;;;;14.60;59.80;100122.98;217818;1259;139416;-69
2023/05/17 14:12:11;;;;;;;13.20;5.60;;;;;;;14.55;59.91;100130.60;217979;1260;139481;-68
2023/05/17 14:17:16;;;;;;;6.70;4.80;;;;;;;14.50;60.42;100140.90;218894;1259;140686;-70
2023/05/17 14:22:21;;;;;;;12.70;5.50;;;;;;;14.42;60.20;100137.98;217937;1257;139551;-69
2023/05/17 14:27:26;;;;;;;8.30;3.40;;;;;;;14.33;60.29;100156.07;219738;1257;139873;-66
2023/05/17 14:32:31;;;;;;;10.30;4.90;;;;;;;14.22;60.45;100164.83;218685;1259;139414;-67
2023/05/17 14:37:36;;;;;;;8.50;4.90;;;;;;;14.11;60.61;100170.08;219513;1257;139855;-68
2023/05/17 14:42:42;;;;;;;6.00;4.90;;;;;;;14.05;61.06;100178.85;218097;1259;139381;-68
2023/05/17 14:47:47;;;;;;;6.80;3.70;;;;;;;14.03;61.09;100192.66;218079;1258;140242;-66
2023/05/17 14:52:52;;;;;;;8.50;4.50;;;;;;;13.98;60.95;100199.05;219648;1257;140510;-68
2023/05/17 14:58:00;;;;;;;5.30;3.90;;;;;;;13.98;61.22;100213.23;218566;1256;139893;-67
2023/05/17 15:03:05;;;;;;;8.30;4.00;;;;;;;14.01;61.21;100218.68;220271;1258;140471;-68
2023/05/17 15:08:13;;;;;;;9.00;4.90;;;;;;;13.99;61.24;100223.21;220518;1256;139933;-67
2023/05/17 15:13:18;;;;;;;5.80;3.90;;;;;;;13.99;61.25;100229.91;218610;1257;140165;-65
2023/05/17 15:18:24;;;;;;;10.10;3.70;;;;;;;13.98;61.35;100226.04;218211;1258;140243;-67
2023/05/17 15:23:30;;;;;;;9.40;4.90;;;;;;;13.92;61.53;100228.30;219364;1256;433814;-68
2023/05/17 15:28:39;;;;;;;11.80;4.30;;;;;;;13.81;61.38;100224.73;219961;1256;139828;-67
2023/05/17 15:33:45;;;;;;;5.80;4.10;;;;;;;13.68;61.43;100227.87;218979;1257;139790;-66
2023/05/17 15:38:54;;;;;;;11.00;5.60;;;;;;;13.54;61.28;100232.28;219333;1258;140091;-66
2023/05/17 15:44:00;;;;;;;6.70;3.80;;;;;;;13.49;61.39;100236.46;218983;1256;140766;-66
2023/05/17 15:49:06;;;;;;;4.70;4.10;;;;;;;13.45;61.64;100238.66;218475;1257;139501;-67
2023/05/17 15:54:12;;;;;;;13.80;5.60;;;;;;;13.41;61.55;100247.39;218770;1256;139789;-67
2023/05/17 15:59:20;;;;;;;8.40;3.90;;;;;;;13.33;61.68;100252.11;218387;1257;140510;-68
2023/05/17 16:04:25;;;;;;;5.70;4.60;;;;;;;13.25;61.95;100257.52;218375;1257;139376;-67
2023/05/17 16:09:31;;;;;;;9.60;5.00;;;;;;;13.15;62.11;100261.19;218030;1257;139352;-67
2023/05/17 16:14:39;;;;;;;10.00;3.90;;;;;;;13.07;62.10;100264.80;218651;1257;139326;-66
2023/05/17 16:19:44;;;;;;;7.70;3.90;;;;;;;12.97;62.08;100267.92;218024;1257;139531;-68
2023/05/17 16:24:54;;;;;;;10.10;4.80;;;;;;;12.84;62.02;100273.50;219592;1257;140056;-68
2023/05/17 16:30:01;;;;;;;9.40;4.10;;;;;;;12.75;62.32;100279.52;218083;1259;139810;-68
2023/05/17 16:35:11;;;;;;;5.70;3.90;;;;;;;12.68;62.13;100283.44;218912;1257;139773;-68
2023/05/17 16:40:17;;;;;;;;;;;;;;;12.65;62.45;100292.46;218877;1256;139954;-68
2023/05/17 16:45:23;;;;;;;8.50;4.60;;;;;;;12.59;62.44;100296.60;218463;1257;125992;-68
2023/05/17 16:50:30;;;;;;;7.00;3.30;;;;;;;12.55;62.55;100305.45;218412;1257;140782;-68
2023/05/17 16:55:35;;;;;;;6.40;4.20;;;;;;;12.51;62.36;100313.60;218217;1258;140871;-68
2023/05/17 17:00:41;;;;;;;8.40;3.90;;;;;;;12.45;62.91;100316.30;219237;1256;140438;-69
2023/05/17 17:05:50;;;;;;;5.00;4.10;;;;;;;12.39;62.91;100320.50;219514;1255;139940;-67
2023/05/17 17:11:01;;;;;;;7.70;4.40;;;;;;;12.35;62.97;100320.50;219095;1257;140497;-67
2023/05/17 17:16:07;;;;;;;9.90;5.10;;;;;;;12.31;63.19;100329.23;219515;1256;140099;-67
2023/05/17 17:21:12;;;;;;;11.70;5.20;;;;;;;12.28;63.39;100336.20;220091;1256;140008;-67
2023/05/17 17:26:18;;;;;;;9.00;4.50;;;;;;;12.27;63.68;100342.17;218543;1257;140370;-65
2023/05/17 17:31:24;;;;;;;10.70;4.80;;;;;;;12.25;63.67;100346.57;217568;1257;140105;-66
2023/05/17 17:36:30;;;;;;;7.60;5.00;;;;;;;12.22;64.07;100349.02;218875;1256;140555;-70
2023/05/17 17:41:36;;;;;;;17.10;5.60;;;;;;;12.16;63.93;100348.95;217805;1257;142073;-68
2023/05/17 17:46:43;;;;;;;14.70;5.30;;;;;;;12.10;64.45;100345.63;218073;1257;143175;-68
2023/05/17 17:51:48;;;;;;;16.10;6.30;;;;;;;12.04;64.61;100354.83;218207;1256;140446;-69
2023/05/17 17:56:53;;;;;;;9.20;5.70;;;;;;;11.98;64.77;100357.43;218244;1257;140334;-69
2023/05/17 18:01:59;;;;;;;7.50;5.30;;;;;;;11.93;65.01;100361.21;217684;1257;141281;-68
2023/05/17 18:07:04;;;;;;;9.60;5.50;;;;;;;11.89;65.28;100362.89;218340;1256;141401;-68
2023/05/17 18:12:09;;;;;;;12.70;5.30;;;;;;;11.86;65.57;100359.33;218056;1256;151652;-70
2023/05/17 18:17:14;;;;;;;7.70;5.80;;;;;;;11.82;65.62;100366.71;217798;1259;140144;-67
2023/05/17 18:22:19;;;;;;;8.10;5.20;;;;;;;11.76;65.80;100367.56;218388;1257;139829;-67
2023/05/17 18:27:23;;;;;;;9.70;6.30;;;;;;;11.70;65.80;100371.82;219044;1257;140008;-66
2023/05/17 18:32:28;;;;;;;12.20;6.70;;;;;;;11.64;65.97;100378.59;218971;1256;142704;-67
2023/05/17 18:37:33;;;;;;;13.80;6.30;;;;;;;11.62;65.96;100384.30;217803;1256;140291;-66
2023/05/17 18:42:37;;;;;;;10.20;6.30;;;;;;;11.57;66.14;100385.16;218674;1257;140081;-67
2023/05/17 18:47:43;;;;;;;14.40;6.60;;;;;;;11.52;66.44;100392.73;219118;1255;145582;-68
2023/05/17 18:52:47;;;;;;;12.90;6.60;;;;;;;11.47;66.59;100389.55;219690;1256;141450;-68
2023/05/17 18:57:51;;;;;;;10.90;5.30;;;;;;;11.43;66.66;100395.67;220740;1255;140490;-67
2023/05/17 19:02:55;;;;;;;9.80;5.10;;;;;;;11.41;66.62;100403.21;220670;1255;140506;-69
2023/05/17 19:08:01;;;;;;;10.30;6.70;;;;;;;11.40;66.70;100410.54;218351;1256;140010;-67
2023/05/17 19:13:06;;;;;;;8.70;5.10;;;;;;;11.38;66.65;100411.02;219742;1255;140385;-67
2023/05/17 19:18:10;;;;;;;13.20;5.50;;;;;;;11.33;66.43;100412.41;217894;1257;140653;-65
2023/05/17 19:23:15;;;;;;;11.50;3.80;;;;;;;11.29;66.49;100413.80;219205;1255;140081;-65
2023/05/17 19:28:20;;;;;;;7.80;5.30;;;;;;;11.24;66.16;100409.38;219565;1255;142294;-68
2023/05/17 19:33:25;;;;;;;8.10;4.00;;;;;;;11.17;65.83;100407.27;218282;1256;139840;-63
2023/05/17 19:38:34;;;;;;;9.50;3.50;;;;;;;11.11;65.67;100413.98;218813;1259;139774;-68
2023/05/17 19:43:39;;;;;;;6.30;3.60;;;;;;;11.08;65.37;100417.49;218035;1257;140051;-68
2023/05/17 19:48:44;;;;;;;6.20;3.20;;;;;;;11.04;65.33;100422.71;218497;1256;141598;-66
2023/05/17 19:53:49;;;;;;;4.00;3.10;;;;;;;11.00;65.20;100420.13;218654;1256;140873;-70
2023/05/17 19:58:57;;;;;;;9.40;4.20;;;;;;;10.95;65.01;100424.83;218231;1257;139685;-66
2023/05/17 20:04:02;;;;;;;5.20;3.60;;;;;;;10.89;64.87;100428.90;218651;1256;140975;-66
2023/05/17 20:09:08;;;;;;;13.00;3.20;;;;;;;10.83;64.69;100435.02;217877;1257;140479;-65
2023/05/17 20:14:14;;;;;;;8.20;3.00;;;;;;;10.78;64.63;100442.61;218642;1257;140730;-66
2023/05/17 20:19:20;;;;;;;10.20;3.30;;;;;;;10.75;64.51;100458.02;217910;1257;140023;-67
2023/05/17 20:24:27;;;;;;;9.90;3.60;;;;;;;10.70;64.57;100453.23;218291;1257;140977;-70
2023/05/17 20:29:33;;;;;;;6.20;2.70;;;;;;;10.64;64.49;100459.36;219643;1255;160583;-70
2023/05/17 20:34:38;;;;;;;6.00;3.10;;;;;;;10.60;64.43;100470.09;217812;1255;140113;-64
2023/05/17 20:39:43;;;;;;;5.30;2.10;;;;;;;10.56;64.40;100469.67;218997;1256;139999;-66
2023/05/17 20:44:47;;;;;;;13.50;4.10;;;;;;;10.49;64.47;100469.47;219667;1257;140342;-64
2023/05/17 20:49:52;;;;;;;7.40;3.10;;;;;;;10.46;64.50;100472.81;218275;1258;139810;-66
2023/05/17 20:54:58;;;;;;;7.20;2.80;;;;;;;10.43;64.62;100477.84;218088;1256;139767;-66
2023/05/17 21:00:08;;;;;;;12.50;2.30;;;;;;;10.38;64.53;100476.08;219011;1255;140314;-66
2023/05/17 21:05:13;;;;;;;7.60;3.20;;;;;;;10.31;64.60;100479.12;220666;1255;140717;-67
2023/05/17 21:10:17;;;;;;;10.80;3.20;;;;;;;10.27;64.47;100484.55;220869;1255;140876;-67
2023/05/17 21:15:23;;;;;;;9.40;2.90;;;;;;;10.24;64.53;100492.73;220599;1256;140544;-66
2023/05/17 21:20:30;;;;;;;7.20;3.90;;;;;;;10.24;64.66;100505.19;219714;1256;139917;-64
2023/05/17 21:25:36;;;;;;;7.90;2.50;;;;;;;10.19;64.57;100513.73;219623;1255;140142;-66
2023/05/17 21:30:40;;;;;;;11.90;2.80;;;;;;;10.16;64.73;100530.06;218031;1258;141259;-67
2023/05/17 21:35:45;;;;;;;10.90;4.30;;;;;;;10.11;64.68;100533.34;220218;1255;140215;-66
2023/05/17 21:40:52;;;;;;;5.60;2.90;;;;;;;10.04;64.64;100536.58;217941;1257;140258;-64
2023/05/17 21:45:55;;;;;;;8.70;2.70;;;;;;;9.98;64.67;100533.32;218540;1257;139680;-68
2023/05/17 21:51:00;;;;;;;5.20;3.40;;;;;;;9.90;64.54;100544.94;218323;1255;141283;-66
2023/05/17 21:56:08;;;;;;;5.70;2.80;;;;;;;9.81;64.50;100550.33;218007;1256;140145;-66
2023/05/17 22:01:12;;;;;;;5.70;2.80;;;;;;;9.76;64.52;100564.04;218404;1255;139911;-66
2023/05/17 22:06:18;;;;;;;9.70;2.40;;;;;;;9.73;64.84;100554.71;218033;1259;139631;-66
2023/05/17 22:11:26;;;;;;;7.70;3.00;;;;;;;9.66;65.11;100556.33;218094;1257;139839;-66
2023/05/17 22:16:31;;;;;;;11.90;4.00;;;;;;;9.59;65.06;100560.50;217599;1255;139810;-66
2023/05/17 22:21:36;;;;;;;6.80;2.70;;;;;;;9.52;65.09;100568.88;218897;1256;139735;-66
2023/05/17 22:26:41;;;;;;;4.70;3.00;;;;;;;9.45;64.97;100572.71;218717;1256;139543;-64
2023/05/17 22:31:48;;;;;;;7.00;2.10;;;;;;;9.37;64.87;100568.74;218071;1256;139849;-65
2023/05/17 22:36:55;;;;;;;8.40;2.60;;;;;;;9.28;64.69;100567.36;218854;1256;140561;-66
2023/05/17 22:42:00;;;;;;;4.00;3.10;;;;;;;9.20;64.65;100566.13;217888;1256;140769;-62
2023/05/17 22:47:07;;;;;;;8.70;2.60;;;;;;;9.15;64.63;100575.77;218721;1255;140375;-65
2023/05/17 22:52:14;;;;;;;6.60;2.40;;;;;;;9.11;64.55;100581.20;219889;1256;140340;-67
2023/05/17 22:57:19;;;;;;;11.20;2.60;;;;;;;9.07;64.60;100585.98;220653;1256;140843;-67
2023/05/17 23:02:23;;;;;;;4.70;2.20;;;;;;;9.02;64.78;100596.73;220368;1255;140036;-67
2023/05/17 23:07:35;;;;;;;4.70;2.20;;;;;;;8.99;64.79;100594.69;218689;1256;140586;-66
2023/05/17 23:12:39;;;;;;;6.20;2.20;;;;;;;8.93;64.47;100595.77;220291;1256;140889;-66